sensor_id;sensor_type;location;lat;lon;timestamp;P1;durP1;ratioP1;P2;durP2;ratioP2
31336;SDS011;22846;42.654;23.314;2023-03-08T00:02:17;25.92;;;18.80;;
31336;SDS011;22846;42.654;23.314;2023-03-08T00:04:42;27.13;;;18.60;;
31336;SDS011;22846;42.654;23.314;2023-03-08T00:07:08;24.58;;;16.98;;
31336;SDS011;22846;42.654;23.314;2023-03-08T00:09:33;24.95;;;17.38;;
31336;SDS011;22846;42.654;23.314;2023-03-08T00:12:01;24.10;;;17.30;;
31336;SDS011;22846;42.654;23.314;2023-03-08T00:14:26;24.83;;;17.50;;
31336;SDS011;22846;42.654;23.314;2023-03-08T00:16:51;22.15;;;16.92;;
31336;SDS011;22846;42.654;23.314;2023-03-08T00:19:17;25.85;;;17.50;;
31336;SDS011;22846;42.654;23.314;2023-03-08T00:21:42;22.60;;;16.48;;
31336;SDS011;22846;42.654;23.314;2023-03-08T00:24:08;23.60;;;16.30;;
31336;SDS011;22846;42.654;23.314;2023-03-08T00:26:33;24.70;;;17.30;;
31336;SDS011;22846;42.654;23.314;2023-03-08T00:28:59;21.88;;;15.80;;
31336;SDS011;22846;42.654;23.314;2023-03-08T00:31:24;24.02;;;15.45;;
31336;SDS011;22846;42.654;23.314;2023-03-08T00:33:53;23.67;;;15.95;;
31336;SDS011;22846;42.654;23.314;2023-03-08T00:36:18;22.02;;;15.70;;
31336;SDS011;22846;42.654;23.314;2023-03-08T00:38:44;21.67;;;14.95;;
31336;SDS011;22846;42.654;23.314;2023-03-08T00:41:10;21.92;;;16.10;;
31336;SDS011;22846;42.654;23.314;2023-03-08T00:43:36;22.10;;;15.18;;
31336;SDS011;22846;42.654;23.314;2023-03-08T00:46:02;22.00;;;14.93;;
31336;SDS011;22846;42.654;23.314;2023-03-08T00:48:28;20.40;;;15.38;;
31336;SDS011;22846;42.654;23.314;2023-03-08T00:50:54;22.80;;;14.98;;
31336;SDS011;22846;42.654;23.314;2023-03-08T00:53:19;19.95;;;14.15;;
31336;SDS011;22846;42.654;23.314;2023-03-08T00:55:52;20.50;;;14.52;;
31336;SDS011;22846;42.654;23.314;2023-03-08T00:58:18;20.95;;;15.45;;
31336;SDS011;22846;42.654;23.314;2023-03-08T01:00:45;18.73;;;14.27;;
31336;SDS011;22846;42.654;23.314;2023-03-08T01:03:10;21.65;;;14.10;;
31336;SDS011;22846;42.654;23.314;2023-03-08T01:05:43;21.10;;;15.45;;
31336;SDS011;22846;42.654;23.314;2023-03-08T01:08:11;22.90;;;14.57;;
31336;SDS011;22846;42.654;23.314;2023-03-08T01:10:37;18.77;;;14.18;;
31336;SDS011;22846;42.654;23.314;2023-03-08T01:13:03;18.75;;;13.70;;
31336;SDS011;22846;42.654;23.314;2023-03-08T01:15:30;18.38;;;13.45;;
31336;SDS011;22846;42.654;23.314;2023-03-08T01:18:00;22.63;;;13.38;;
31336;SDS011;22846;42.654;23.314;2023-03-08T01:20:25;17.92;;;13.13;;
31336;SDS011;22846;42.654;23.314;2023-03-08T01:22:50;16.95;;;13.02;;
31336;SDS011;22846;42.654;23.314;2023-03-08T01:25:16;17.20;;;12.80;;
31336;SDS011;22846;42.654;23.314;2023-03-08T01:27:41;17.50;;;12.52;;
31336;SDS011;22846;42.654;23.314;2023-03-08T01:30:07;17.70;;;12.88;;
31336;SDS011;22846;42.654;23.314;2023-03-08T01:32:33;16.75;;;13.13;;
31336;SDS011;22846;42.654;23.314;2023-03-08T01:34:58;16.73;;;12.40;;
31336;SDS011;22846;42.654;23.314;2023-03-08T01:37:28;14.82;;;11.20;;
31336;SDS011;22846;42.654;23.314;2023-03-08T01:39:54;15.65;;;11.82;;
31336;SDS011;22846;42.654;23.314;2023-03-08T01:42:20;17.10;;;12.07;;
31336;SDS011;22846;42.654;23.314;2023-03-08T01:44:56;17.05;;;11.30;;
31336;SDS011;22846;42.654;23.314;2023-03-08T01:47:28;18.30;;;11.50;;
31336;SDS011;22846;42.654;23.314;2023-03-08T01:50:01;17.58;;;12.52;;
31336;SDS011;22846;42.654;23.314;2023-03-08T01:52:30;18.05;;;11.55;;
31336;SDS011;22846;42.654;23.314;2023-03-08T01:55:02;15.95;;;11.60;;
31336;SDS011;22846;42.654;23.314;2023-03-08T01:57:40;16.33;;;11.88;;
31336;SDS011;22846;42.654;23.314;2023-03-08T02:02:47;14.77;;;11.30;;
31336;SDS011;22846;42.654;23.314;2023-03-08T02:05:16;16.90;;;12.23;;
31336;SDS011;22846;42.654;23.314;2023-03-08T02:07:43;16.67;;;11.40;;
31336;SDS011;22846;42.654;23.314;2023-03-08T02:10:09;14.95;;;10.98;;
31336;SDS011;22846;42.654;23.314;2023-03-08T02:12:35;14.57;;;11.13;;
31336;SDS011;22846;42.654;23.314;2023-03-08T02:15:03;15.63;;;11.73;;
31336;SDS011;22846;42.654;23.314;2023-03-08T02:17:31;13.30;;;10.27;;
31336;SDS011;22846;42.654;23.314;2023-03-08T02:22:42;14.75;;;10.93;;
31336;SDS011;22846;42.654;23.314;2023-03-08T02:25:18;14.55;;;10.73;;
31336;SDS011;22846;42.654;23.314;2023-03-08T02:27:45;14.23;;;10.75;;
31336;SDS011;22846;42.654;23.314;2023-03-08T02:30:12;14.18;;;10.02;;
31336;SDS011;22846;42.654;23.314;2023-03-08T02:32:40;13.70;;;10.30;;
31336;SDS011;22846;42.654;23.314;2023-03-08T02:35:05;13.35;;;10.00;;
31336;SDS011;22846;42.654;23.314;2023-03-08T02:37:31;12.98;;;9.38;;
31336;SDS011;22846;42.654;23.314;2023-03-08T02:39:57;15.30;;;10.20;;
31336;SDS011;22846;42.654;23.314;2023-03-08T02:42:22;13.25;;;9.93;;
31336;SDS011;22846;42.654;23.314;2023-03-08T02:44:48;12.38;;;9.55;;
31336;SDS011;22846;42.654;23.314;2023-03-08T02:47:13;13.25;;;10.48;;
31336;SDS011;22846;42.654;23.314;2023-03-08T02:49:39;13.85;;;10.18;;
31336;SDS011;22846;42.654;23.314;2023-03-08T02:52:05;12.48;;;9.15;;
31336;SDS011;22846;42.654;23.314;2023-03-08T02:54:31;12.25;;;9.80;;
31336;SDS011;22846;42.654;23.314;2023-03-08T02:56:56;12.95;;;9.57;;
31336;SDS011;22846;42.654;23.314;2023-03-08T02:59:22;13.02;;;9.38;;
31336;SDS011;22846;42.654;23.314;2023-03-08T03:01:47;12.52;;;9.55;;
31336;SDS011;22846;42.654;23.314;2023-03-08T03:04:13;14.13;;;9.75;;
31336;SDS011;22846;42.654;23.314;2023-03-08T03:06:38;13.20;;;8.85;;
31336;SDS011;22846;42.654;23.314;2023-03-08T03:09:07;11.88;;;9.43;;
31336;SDS011;22846;42.654;23.314;2023-03-08T03:11:33;11.75;;;8.98;;
31336;SDS011;22846;42.654;23.314;2023-03-08T03:13:59;11.55;;;9.25;;
31336;SDS011;22846;42.654;23.314;2023-03-08T03:16:24;11.35;;;8.80;;
31336;SDS011;22846;42.654;23.314;2023-03-08T03:18:53;11.88;;;9.65;;
31336;SDS011;22846;42.654;23.314;2023-03-08T03:21:20;12.32;;;8.82;;
31336;SDS011;22846;42.654;23.314;2023-03-08T03:23:47;9.98;;;7.85;;
31336;SDS011;22846;42.654;23.314;2023-03-08T03:26:18;12.77;;;8.95;;
31336;SDS011;22846;42.654;23.314;2023-03-08T03:28:45;12.13;;;8.97;;
31336;SDS011;22846;42.654;23.314;2023-03-08T03:31:16;10.88;;;8.43;;
31336;SDS011;22846;42.654;23.314;2023-03-08T03:33:43;11.75;;;8.60;;
31336;SDS011;22846;42.654;23.314;2023-03-08T03:36:10;10.52;;;8.48;;
31336;SDS011;22846;42.654;23.314;2023-03-08T03:38:38;11.57;;;8.77;;
31336;SDS011;22846;42.654;23.314;2023-03-08T03:41:07;10.60;;;8.68;;
31336;SDS011;22846;42.654;23.314;2023-03-08T03:43:38;10.98;;;8.48;;
31336;SDS011;22846;42.654;23.314;2023-03-08T03:46:04;11.35;;;8.48;;
31336;SDS011;22846;42.654;23.314;2023-03-08T03:48:33;10.10;;;8.18;;
31336;SDS011;22846;42.654;23.314;2023-03-08T03:51:00;11.40;;;8.55;;
31336;SDS011;22846;42.654;23.314;2023-03-08T03:53:28;10.82;;;8.38;;
31336;SDS011;22846;42.654;23.314;2023-03-08T03:55:54;10.48;;;7.88;;
31336;SDS011;22846;42.654;23.314;2023-03-08T03:58:20;9.98;;;7.68;;
31336;SDS011;22846;42.654;23.314;2023-03-08T04:00:46;10.52;;;7.97;;
31336;SDS011;22846;42.654;23.314;2023-03-08T04:03:11;9.30;;;8.02;;
31336;SDS011;22846;42.654;23.314;2023-03-08T04:05:37;11.85;;;8.10;;
31336;SDS011;22846;42.654;23.314;2023-03-08T04:08:04;9.27;;;7.30;;
31336;SDS011;22846;42.654;23.314;2023-03-08T04:10:30;9.88;;;7.25;;
31336;SDS011;22846;42.654;23.314;2023-03-08T04:12:56;9.38;;;6.90;;
31336;SDS011;22846;42.654;23.314;2023-03-08T04:15:21;10.65;;;8.00;;
31336;SDS011;22846;42.654;23.314;2023-03-08T04:17:47;9.77;;;7.03;;
31336;SDS011;22846;42.654;23.314;2023-03-08T04:20:12;9.43;;;7.25;;
31336;SDS011;22846;42.654;23.314;2023-03-08T04:22:38;8.45;;;6.72;;
31336;SDS011;22846;42.654;23.314;2023-03-08T04:25:04;10.15;;;6.70;;
31336;SDS011;22846;42.654;23.314;2023-03-08T04:27:29;9.50;;;7.28;;
31336;SDS011;22846;42.654;23.314;2023-03-08T04:29:55;9.15;;;6.97;;
31336;SDS011;22846;42.654;23.314;2023-03-08T04:32:20;7.95;;;6.35;;
31336;SDS011;22846;42.654;23.314;2023-03-08T04:34:46;8.57;;;6.43;;
31336;SDS011;22846;42.654;23.314;2023-03-08T04:37:12;8.32;;;6.40;;
31336;SDS011;22846;42.654;23.314;2023-03-08T04:39:37;8.10;;;6.55;;
31336;SDS011;22846;42.654;23.314;2023-03-08T04:42:03;8.05;;;6.65;;
31336;SDS011;22846;42.654;23.314;2023-03-08T04:44:29;9.18;;;6.88;;
31336;SDS011;22846;42.654;23.314;2023-03-08T04:46:54;8.20;;;6.10;;
31336;SDS011;22846;42.654;23.314;2023-03-08T04:49:20;9.50;;;6.47;;
31336;SDS011;22846;42.654;23.314;2023-03-08T04:51:45;8.07;;;6.30;;
31336;SDS011;22846;42.654;23.314;2023-03-08T04:54:14;7.72;;;5.90;;
31336;SDS011;22846;42.654;23.314;2023-03-08T04:56:39;10.57;;;6.28;;
31336;SDS011;22846;42.654;23.314;2023-03-08T04:59:04;7.80;;;6.22;;
31336;SDS011;22846;42.654;23.314;2023-03-08T05:01:30;8.05;;;5.38;;
31336;SDS011;22846;42.654;23.314;2023-03-08T05:03:56;9.32;;;6.45;;
31336;SDS011;22846;42.654;23.314;2023-03-08T05:06:22;8.07;;;6.20;;
31336;SDS011;22846;42.654;23.314;2023-03-08T05:08:49;21.15;;;12.40;;
31336;SDS011;22846;42.654;23.314;2023-03-08T05:11:22;23.33;;;13.13;;
31336;SDS011;22846;42.654;23.314;2023-03-08T05:13:49;16.23;;;10.35;;
31336;SDS011;22846;42.654;23.314;2023-03-08T05:16:16;16.23;;;9.32;;
31336;SDS011;22846;42.654;23.314;2023-03-08T05:18:42;17.27;;;8.23;;
31336;SDS011;22846;42.654;23.314;2023-03-08T05:21:09;14.40;;;7.82;;
31336;SDS011;22846;42.654;23.314;2023-03-08T05:23:37;14.07;;;7.57;;
31336;SDS011;22846;42.654;23.314;2023-03-08T05:26:03;13.75;;;7.03;;
31336;SDS011;22846;42.654;23.314;2023-03-08T05:28:32;16.58;;;8.05;;
31336;SDS011;22846;42.654;23.314;2023-03-08T05:30:59;24.25;;;7.50;;
31336;SDS011;22846;42.654;23.314;2023-03-08T05:33:28;16.90;;;8.27;;
31336;SDS011;22846;42.654;23.314;2023-03-08T05:35:54;17.42;;;9.18;;
31336;SDS011;22846;42.654;23.314;2023-03-08T05:38:20;22.58;;;9.48;;
31336;SDS011;22846;42.654;23.314;2023-03-08T05:40:46;31.10;;;11.30;;
31336;SDS011;22846;42.654;23.314;2023-03-08T05:43:11;31.75;;;13.35;;
31336;SDS011;22846;42.654;23.314;2023-03-08T05:45:37;27.42;;;11.32;;
31336;SDS011;22846;42.654;23.314;2023-03-08T05:48:02;23.10;;;9.77;;
31336;SDS011;22846;42.654;23.314;2023-03-08T05:50:28;26.63;;;10.38;;
31336;SDS011;22846;42.654;23.314;2023-03-08T05:52:53;21.90;;;10.48;;
31336;SDS011;22846;42.654;23.314;2023-03-08T05:55:19;30.20;;;10.23;;
31336;SDS011;22846;42.654;23.314;2023-03-08T05:57:44;24.30;;;10.18;;
31336;SDS011;22846;42.654;23.314;2023-03-08T06:00:09;20.67;;;9.98;;
31336;SDS011;22846;42.654;23.314;2023-03-08T06:02:35;17.83;;;9.73;;
31336;SDS011;22846;42.654;23.314;2023-03-08T06:05:01;19.05;;;9.35;;
31336;SDS011;22846;42.654;23.314;2023-03-08T06:07:26;19.75;;;9.68;;
31336;SDS011;22846;42.654;23.314;2023-03-08T06:09:51;19.63;;;9.07;;
31336;SDS011;22846;42.654;23.314;2023-03-08T06:12:17;19.55;;;9.13;;
31336;SDS011;22846;42.654;23.314;2023-03-08T06:14:42;21.17;;;9.45;;
31336;SDS011;22846;42.654;23.314;2023-03-08T06:17:08;17.67;;;8.63;;
31336;SDS011;22846;42.654;23.314;2023-03-08T06:19:33;15.95;;;8.52;;
31336;SDS011;22846;42.654;23.314;2023-03-08T06:21:59;18.52;;;8.50;;
31336;SDS011;22846;42.654;23.314;2023-03-08T06:24:24;17.98;;;8.55;;
31336;SDS011;22846;42.654;23.314;2023-03-08T06:26:49;16.98;;;8.50;;
31336;SDS011;22846;42.654;23.314;2023-03-08T06:29:15;18.48;;;8.63;;
31336;SDS011;22846;42.654;23.314;2023-03-08T06:31:40;19.92;;;8.52;;
31336;SDS011;22846;42.654;23.314;2023-03-08T06:34:06;22.23;;;8.90;;
31336;SDS011;22846;42.654;23.314;2023-03-08T06:36:31;16.95;;;8.95;;
31336;SDS011;22846;42.654;23.314;2023-03-08T06:38:57;19.10;;;9.55;;
31336;SDS011;22846;42.654;23.314;2023-03-08T06:41:23;17.85;;;8.88;;
31336;SDS011;22846;42.654;23.314;2023-03-08T06:43:49;18.33;;;8.20;;
31336;SDS011;22846;42.654;23.314;2023-03-08T06:46:15;18.90;;;8.45;;
31336;SDS011;22846;42.654;23.314;2023-03-08T06:48:41;25.42;;;9.10;;
31336;SDS011;22846;42.654;23.314;2023-03-08T06:51:07;13.85;;;8.00;;
31336;SDS011;22846;42.654;23.314;2023-03-08T06:53:32;16.65;;;7.90;;
31336;SDS011;22846;42.654;23.314;2023-03-08T06:56:00;16.50;;;8.43;;
31336;SDS011;22846;42.654;23.314;2023-03-08T06:58:27;18.13;;;8.20;;
31336;SDS011;22846;42.654;23.314;2023-03-08T07:00:53;15.50;;;8.20;;
31336;SDS011;22846;42.654;23.314;2023-03-08T07:03:19;16.02;;;8.55;;
31336;SDS011;22846;42.654;23.314;2023-03-08T07:05:44;15.85;;;8.15;;
31336;SDS011;22846;42.654;23.314;2023-03-08T07:08:10;13.63;;;7.88;;
31336;SDS011;22846;42.654;23.314;2023-03-08T07:10:35;13.82;;;7.85;;
31336;SDS011;22846;42.654;23.314;2023-03-08T07:13:01;13.05;;;7.88;;
31336;SDS011;22846;42.654;23.314;2023-03-08T07:15:26;16.00;;;7.75;;
31336;SDS011;22846;42.654;23.314;2023-03-08T07:17:53;15.45;;;7.82;;
31336;SDS011;22846;42.654;23.314;2023-03-08T07:20:20;11.50;;;7.63;;
31336;SDS011;22846;42.654;23.314;2023-03-08T07:22:47;14.52;;;7.78;;
31336;SDS011;22846;42.654;23.314;2023-03-08T07:25:13;13.77;;;7.55;;
31336;SDS011;22846;42.654;23.314;2023-03-08T07:27:40;11.98;;;7.20;;
31336;SDS011;22846;42.654;23.314;2023-03-08T07:30:07;11.48;;;7.10;;
31336;SDS011;22846;42.654;23.314;2023-03-08T07:32:37;13.20;;;7.15;;
31336;SDS011;22846;42.654;23.314;2023-03-08T07:35:05;12.10;;;7.65;;
31336;SDS011;22846;42.654;23.314;2023-03-08T07:37:32;12.30;;;7.07;;
31336;SDS011;22846;42.654;23.314;2023-03-08T07:39:57;10.63;;;6.82;;
31336;SDS011;22846;42.654;23.314;2023-03-08T07:42:23;13.30;;;7.15;;
31336;SDS011;22846;42.654;23.314;2023-03-08T07:44:48;10.15;;;7.22;;
31336;SDS011;22846;42.654;23.314;2023-03-08T07:47:13;11.18;;;7.10;;
31336;SDS011;22846;42.654;23.314;2023-03-08T07:49:39;9.93;;;6.88;;
31336;SDS011;22846;42.654;23.314;2023-03-08T07:52:04;11.18;;;7.03;;
31336;SDS011;22846;42.654;23.314;2023-03-08T07:54:30;11.45;;;7.28;;
31336;SDS011;22846;42.654;23.314;2023-03-08T07:56:55;10.93;;;7.40;;
31336;SDS011;22846;42.654;23.314;2023-03-08T07:59:21;12.48;;;7.20;;
31336;SDS011;22846;42.654;23.314;2023-03-08T08:01:47;11.75;;;7.30;;
31336;SDS011;22846;42.654;23.314;2023-03-08T08:04:13;9.95;;;6.88;;
31336;SDS011;22846;42.654;23.314;2023-03-08T08:06:38;11.10;;;7.50;;
31336;SDS011;22846;42.654;23.314;2023-03-08T08:09:05;11.10;;;6.80;;
31336;SDS011;22846;42.654;23.314;2023-03-08T08:11:31;10.05;;;6.53;;
31336;SDS011;22846;42.654;23.314;2023-03-08T08:13:57;12.65;;;7.13;;
31336;SDS011;22846;42.654;23.314;2023-03-08T08:16:22;9.65;;;6.88;;
31336;SDS011;22846;42.654;23.314;2023-03-08T08:18:50;11.48;;;7.20;;
31336;SDS011;22846;42.654;23.314;2023-03-08T08:21:16;10.25;;;7.10;;
31336;SDS011;22846;42.654;23.314;2023-03-08T08:23:42;10.63;;;7.45;;
31336;SDS011;22846;42.654;23.314;2023-03-08T08:26:12;10.65;;;6.68;;
31336;SDS011;22846;42.654;23.314;2023-03-08T08:28:39;10.27;;;6.88;;
31336;SDS011;22846;42.654;23.314;2023-03-08T08:31:07;12.25;;;7.20;;
31336;SDS011;22846;42.654;23.314;2023-03-08T08:33:35;12.15;;;7.68;;
31336;SDS011;22846;42.654;23.314;2023-03-08T08:36:05;10.10;;;7.10;;
31336;SDS011;22846;42.654;23.314;2023-03-08T08:38:35;10.80;;;7.50;;
31336;SDS011;22846;42.654;23.314;2023-03-08T08:41:02;10.55;;;7.40;;
31336;SDS011;22846;42.654;23.314;2023-03-08T08:43:29;9.18;;;6.95;;
31336;SDS011;22846;42.654;23.314;2023-03-08T08:45:56;10.48;;;7.15;;
31336;SDS011;22846;42.654;23.314;2023-03-08T08:48:22;11.38;;;7.20;;
31336;SDS011;22846;42.654;23.314;2023-03-08T08:50:48;9.65;;;6.90;;
31336;SDS011;22846;42.654;23.314;2023-03-08T08:53:14;11.15;;;7.32;;
31336;SDS011;22846;42.654;23.314;2023-03-08T08:55:40;9.85;;;6.55;;
31336;SDS011;22846;42.654;23.314;2023-03-08T08:58:07;10.45;;;7.13;;
31336;SDS011;22846;42.654;23.314;2023-03-08T09:00:33;9.93;;;7.03;;
31336;SDS011;22846;42.654;23.314;2023-03-08T09:03:00;10.02;;;7.20;;
31336;SDS011;22846;42.654;23.314;2023-03-08T09:05:26;9.95;;;7.10;;
31336;SDS011;22846;42.654;23.314;2023-03-08T09:07:52;11.48;;;7.13;;
31336;SDS011;22846;42.654;23.314;2023-03-08T09:10:19;10.48;;;7.15;;
31336;SDS011;22846;42.654;23.314;2023-03-08T09:12:45;11.23;;;6.22;;
31336;SDS011;22846;42.654;23.314;2023-03-08T09:15:10;8.70;;;6.43;;
31336;SDS011;22846;42.654;23.314;2023-03-08T09:17:36;9.65;;;6.82;;
31336;SDS011;22846;42.654;23.314;2023-03-08T09:20:03;7.93;;;6.40;;
31336;SDS011;22846;42.654;23.314;2023-03-08T09:22:30;7.47;;;5.80;;
31336;SDS011;22846;42.654;23.314;2023-03-08T09:24:56;8.00;;;6.03;;
31336;SDS011;22846;42.654;23.314;2023-03-08T09:27:21;7.82;;;6.30;;
31336;SDS011;22846;42.654;23.314;2023-03-08T09:29:47;7.10;;;5.72;;
31336;SDS011;22846;42.654;23.314;2023-03-08T09:32:12;9.10;;;6.70;;
31336;SDS011;22846;42.654;23.314;2023-03-08T09:34:38;7.65;;;6.00;;
31336;SDS011;22846;42.654;23.314;2023-03-08T09:37:03;8.27;;;5.78;;
31336;SDS011;22846;42.654;23.314;2023-03-08T09:39:31;7.72;;;5.63;;
31336;SDS011;22846;42.654;23.314;2023-03-08T09:41:58;8.50;;;6.05;;
31336;SDS011;22846;42.654;23.314;2023-03-08T09:49:55;7.60;;;5.03;;
31336;SDS011;22846;42.654;23.314;2023-03-08T09:52:31;7.53;;;4.32;;
31336;SDS011;22846;42.654;23.314;2023-03-08T09:55:03;6.80;;;5.30;;
31336;SDS011;22846;42.654;23.314;2023-03-08T09:57:36;6.97;;;4.60;;
31336;SDS011;22846;42.654;23.314;2023-03-08T10:00:12;6.40;;;4.22;;
31336;SDS011;22846;42.654;23.314;2023-03-08T10:02:52;8.30;;;4.72;;
31336;SDS011;22846;42.654;23.314;2023-03-08T10:06:04;5.95;;;4.55;;
31336;SDS011;22846;42.654;23.314;2023-03-08T10:08:31;6.93;;;4.63;;
31336;SDS011;22846;42.654;23.314;2023-03-08T10:13:59;7.50;;;4.80;;
31336;SDS011;22846;42.654;23.314;2023-03-08T10:16:32;5.63;;;4.47;;
31336;SDS011;22846;42.654;23.314;2023-03-08T10:22:28;5.00;;;3.85;;
31336;SDS011;22846;42.654;23.314;2023-03-08T10:27:45;5.35;;;4.10;;
31336;SDS011;22846;42.654;23.314;2023-03-08T10:30:13;5.38;;;3.80;;
31336;SDS011;22846;42.654;23.314;2023-03-08T10:32:44;5.45;;;3.92;;
31336;SDS011;22846;42.654;23.314;2023-03-08T10:35:11;5.25;;;3.70;;
31336;SDS011;22846;42.654;23.314;2023-03-08T10:37:37;4.90;;;3.70;;
31336;SDS011;22846;42.654;23.314;2023-03-08T10:40:06;6.53;;;3.70;;
31336;SDS011;22846;42.654;23.314;2023-03-08T10:42:41;4.97;;;3.53;;
31336;SDS011;22846;42.654;23.314;2023-03-08T10:45:14;5.85;;;3.78;;
31336;SDS011;22846;42.654;23.314;2023-03-08T10:47:56;5.18;;;3.72;;
31336;SDS011;22846;42.654;23.314;2023-03-08T10:50:29;5.10;;;3.70;;
31336;SDS011;22846;42.654;23.314;2023-03-08T10:53:09;6.10;;;3.70;;
31336;SDS011;22846;42.654;23.314;2023-03-08T10:55:46;4.65;;;3.30;;
31336;SDS011;22846;42.654;23.314;2023-03-08T11:00:51;4.55;;;3.50;;
31336;SDS011;22846;42.654;23.314;2023-03-08T11:03:19;4.22;;;3.47;;
31336;SDS011;22846;42.654;23.314;2023-03-08T11:05:56;4.57;;;3.03;;
31336;SDS011;22846;42.654;23.314;2023-03-08T11:08:34;4.25;;;3.10;;
31336;SDS011;22846;42.654;23.314;2023-03-08T11:13:38;4.18;;;3.17;;
31336;SDS011;22846;42.654;23.314;2023-03-08T11:21:42;4.07;;;3.15;;
31336;SDS011;22846;42.654;23.314;2023-03-08T11:40:50;5.13;;;3.67;;
31336;SDS011;22846;42.654;23.314;2023-03-08T11:57:30;2.90;;;2.60;;
31336;SDS011;22846;42.654;23.314;2023-03-08T12:00:08;3.13;;;2.42;;
31336;SDS011;22846;42.654;23.314;2023-03-08T12:02:44;4.38;;;2.47;;
31336;SDS011;22846;42.654;23.314;2023-03-08T12:07:51;3.10;;;2.47;;
31336;SDS011;22846;42.654;23.314;2023-03-08T12:10:21;3.13;;;2.60;;
31336;SDS011;22846;42.654;23.314;2023-03-08T12:21:22;3.15;;;2.45;;
31336;SDS011;22846;42.654;23.314;2023-03-08T12:27:07;3.88;;;2.55;;
31336;SDS011;22846;42.654;23.314;2023-03-08T12:32:51;3.08;;;2.40;;
31336;SDS011;22846;42.654;23.314;2023-03-08T12:35:25;3.05;;;2.25;;
31336;SDS011;22846;42.654;23.314;2023-03-08T12:43:08;3.95;;;2.30;;
31336;SDS011;22846;42.654;23.314;2023-03-08T12:45:42;3.67;;;2.40;;
31336;SDS011;22846;42.654;23.314;2023-03-08T12:48:20;4.95;;;2.30;;
31336;SDS011;22846;42.654;23.314;2023-03-08T12:53:31;3.13;;;2.47;;
31336;SDS011;22846;42.654;23.314;2023-03-08T12:58:35;3.00;;;2.38;;
31336;SDS011;22846;42.654;23.314;2023-03-08T13:01:05;3.22;;;2.28;;
31336;SDS011;22846;42.654;23.314;2023-03-08T13:06:29;2.10;;;1.85;;
31336;SDS011;22846;42.654;23.314;2023-03-08T13:11:40;2.78;;;2.10;;
31336;SDS011;22846;42.654;23.314;2023-03-08T13:14:26;3.05;;;1.75;;
31336;SDS011;22846;42.654;23.314;2023-03-08T13:19:56;2.33;;;1.90;;
31336;SDS011;22846;42.654;23.314;2023-03-08T13:22:30;2.60;;;2.13;;
31336;SDS011;22846;42.654;23.314;2023-03-08T13:25:19;2.92;;;2.22;;
31336;SDS011;22846;42.654;23.314;2023-03-08T13:30:40;3.45;;;2.10;;
31336;SDS011;22846;42.654;23.314;2023-03-08T13:33:07;2.60;;;2.00;;
31336;SDS011;22846;42.654;23.314;2023-03-08T13:35:37;2.95;;;1.95;;
31336;SDS011;22846;42.654;23.314;2023-03-08T13:38:03;3.58;;;2.10;;
31336;SDS011;22846;42.654;23.314;2023-03-08T13:40:29;3.00;;;2.10;;
31336;SDS011;22846;42.654;23.314;2023-03-08T13:43:02;3.67;;;2.00;;
31336;SDS011;22846;42.654;23.314;2023-03-08T13:45:30;2.60;;;1.80;;
31336;SDS011;22846;42.654;23.314;2023-03-08T13:47:59;2.50;;;1.80;;
31336;SDS011;22846;42.654;23.314;2023-03-08T13:50:33;2.15;;;1.95;;
31336;SDS011;22846;42.654;23.314;2023-03-08T13:53:01;2.50;;;1.70;;
31336;SDS011;22846;42.654;23.314;2023-03-08T13:55:33;1.92;;;1.50;;
31336;SDS011;22846;42.654;23.314;2023-03-08T13:57:59;1.92;;;1.73;;
31336;SDS011;22846;42.654;23.314;2023-03-08T14:02:55;2.30;;;1.90;;
31336;SDS011;22846;42.654;23.314;2023-03-08T14:05:24;2.75;;;1.88;;
31336;SDS011;22846;42.654;23.314;2023-03-08T14:07:55;2.05;;;1.70;;
31336;SDS011;22846;42.654;23.314;2023-03-08T14:10:30;2.42;;;1.75;;
31336;SDS011;22846;42.654;23.314;2023-03-08T14:13:01;2.30;;;1.80;;
31336;SDS011;22846;42.654;23.314;2023-03-08T14:15:27;2.45;;;1.40;;
31336;SDS011;22846;42.654;23.314;2023-03-08T14:17:53;2.88;;;2.05;;
31336;SDS011;22846;42.654;23.314;2023-03-08T14:20:19;2.78;;;1.67;;
31336;SDS011;22846;42.654;23.314;2023-03-08T14:22:48;2.42;;;1.90;;
31336;SDS011;22846;42.654;23.314;2023-03-08T14:25:23;3.42;;;1.65;;
31336;SDS011;22846;42.654;23.314;2023-03-08T14:27:53;1.88;;;1.77;;
31336;SDS011;22846;42.654;23.314;2023-03-08T14:30:24;2.20;;;1.60;;
31336;SDS011;22846;42.654;23.314;2023-03-08T14:32:58;2.28;;;1.77;;
31336;SDS011;22846;42.654;23.314;2023-03-08T14:35:27;2.15;;;1.60;;
31336;SDS011;22846;42.654;23.314;2023-03-08T14:37:55;2.35;;;1.63;;
31336;SDS011;22846;42.654;23.314;2023-03-08T14:42:54;2.67;;;1.75;;
31336;SDS011;22846;42.654;23.314;2023-03-08T14:47:54;1.90;;;1.70;;
31336;SDS011;22846;42.654;23.314;2023-03-08T14:50:25;2.05;;;1.70;;
31336;SDS011;22846;42.654;23.314;2023-03-08T14:52:58;2.20;;;1.60;;
31336;SDS011;22846;42.654;23.314;2023-03-08T14:57:59;2.47;;;1.83;;
31336;SDS011;22846;42.654;23.314;2023-03-08T15:00:34;2.75;;;1.52;;
31336;SDS011;22846;42.654;23.314;2023-03-08T15:03:00;2.05;;;1.73;;
31336;SDS011;22846;42.654;23.314;2023-03-08T15:05:26;2.10;;;1.50;;
31336;SDS011;22846;42.654;23.314;2023-03-08T15:07:52;2.38;;;1.70;;
31336;SDS011;22846;42.654;23.314;2023-03-08T15:10:22;2.45;;;1.50;;
31336;SDS011;22846;42.654;23.314;2023-03-08T15:12:59;1.70;;;1.40;;
31336;SDS011;22846;42.654;23.314;2023-03-08T15:15:25;2.22;;;1.67;;
31336;SDS011;22846;42.654;23.314;2023-03-08T15:17:50;1.63;;;1.30;;
31336;SDS011;22846;42.654;23.314;2023-03-08T15:20:16;1.50;;;1.40;;
31336;SDS011;22846;42.654;23.314;2023-03-08T15:22:44;2.47;;;1.70;;
31336;SDS011;22846;42.654;23.314;2023-03-08T15:25:24;2.00;;;1.50;;
31336;SDS011;22846;42.654;23.314;2023-03-08T15:27:51;1.77;;;1.35;;
31336;SDS011;22846;42.654;23.314;2023-03-08T15:30:18;1.30;;;1.20;;
31336;SDS011;22846;42.654;23.314;2023-03-08T15:32:45;2.05;;;1.73;;
31336;SDS011;22846;42.654;23.314;2023-03-08T15:35:10;2.15;;;1.60;;
31336;SDS011;22846;42.654;23.314;2023-03-08T15:37:36;2.22;;;1.50;;
31336;SDS011;22846;42.654;23.314;2023-03-08T15:40:02;2.03;;;1.83;;
31336;SDS011;22846;42.654;23.314;2023-03-08T15:42:31;2.25;;;1.60;;
31336;SDS011;22846;42.654;23.314;2023-03-08T15:44:56;1.85;;;1.40;;
31336;SDS011;22846;42.654;23.314;2023-03-08T15:47:22;1.55;;;1.30;;
31336;SDS011;22846;42.654;23.314;2023-03-08T15:49:50;1.85;;;1.70;;
31336;SDS011;22846;42.654;23.314;2023-03-08T15:52:16;2.55;;;1.65;;
31336;SDS011;22846;42.654;23.314;2023-03-08T15:54:41;2.78;;;1.83;;
31336;SDS011;22846;42.654;23.314;2023-03-08T15:57:11;2.28;;;1.40;;
31336;SDS011;22846;42.654;23.314;2023-03-08T15:59:37;1.60;;;1.48;;
31336;SDS011;22846;42.654;23.314;2023-03-08T16:02:03;2.08;;;1.60;;
31336;SDS011;22846;42.654;23.314;2023-03-08T16:04:29;1.83;;;1.40;;
31336;SDS011;22846;42.654;23.314;2023-03-08T16:06:54;2.25;;;1.58;;
31336;SDS011;22846;42.654;23.314;2023-03-08T16:09:20;2.03;;;1.60;;
31336;SDS011;22846;42.654;23.314;2023-03-08T16:11:45;2.60;;;1.60;;
31336;SDS011;22846;42.654;23.314;2023-03-08T16:14:11;2.00;;;1.40;;
31336;SDS011;22846;42.654;23.314;2023-03-08T16:16:41;1.92;;;1.50;;
31336;SDS011;22846;42.654;23.314;2023-03-08T16:19:07;1.60;;;1.50;;
31336;SDS011;22846;42.654;23.314;2023-03-08T16:21:32;1.88;;;1.50;;